sensor_id;sensor_type;location;lat;lon;timestamp;temperature;humidity
46720;DHT22;32452;51.382;-0.002;2023-07-20T00:00:03;18.90;72.50
46720;DHT22;32452;51.382;-0.002;2023-07-20T00:02:51;18.80;72.70
46720;DHT22;32452;51.382;-0.002;2023-07-20T00:05:39;18.80;73.00
46720;DHT22;32452;51.382;-0.002;2023-07-20T00:08:26;18.80;73.30
46720;DHT22;32452;51.382;-0.002;2023-07-20T00:11:13;18.70;73.60
46720;DHT22;32452;51.382;-0.002;2023-07-20T00:13:59;18.70;73.80
46720;DHT22;32452;51.382;-0.002;2023-07-20T00:16:49;18.60;74.10
46720;DHT22;32452;51.382;-0.002;2023-07-20T00:19:40;18.60;74.30
46720;DHT22;32452;51.382;-0.002;2023-07-20T00:22:26;18.60;74.50
46720;DHT22;32452;51.382;-0.002;2023-07-20T00:25:17;18.50;74.80
46720;DHT22;32452;51.382;-0.002;2023-07-20T00:28:03;18.50;75.10
46720;DHT22;32452;51.382;-0.002;2023-07-20T00:30:50;18.50;75.30
46720;DHT22;32452;51.382;-0.002;2023-07-20T00:33:44;18.40;75.70
46720;DHT22;32452;51.382;-0.002;2023-07-20T00:36:31;18.30;76.10
46720;DHT22;32452;51.382;-0.002;2023-07-20T00:39:16;18.30;76.60
46720;DHT22;32452;51.382;-0.002;2023-07-20T00:42:02;18.30;77.00
46720;DHT22;32452;51.382;-0.002;2023-07-20T00:44:47;18.20;77.40
46720;DHT22;32452;51.382;-0.002;2023-07-20T00:47:33;18.20;77.80
46720;DHT22;32452;51.382;-0.002;2023-07-20T00:50:19;18.20;78.10
46720;DHT22;32452;51.382;-0.002;2023-07-20T00:53:05;18.10;78.40
46720;DHT22;32452;51.382;-0.002;2023-07-20T00:55:52;18.10;78.70
46720;DHT22;32452;51.382;-0.002;2023-07-20T00:58:42;18.10;79.00
46720;DHT22;32452;51.382;-0.002;2023-07-20T01:01:28;18.00;79.20
46720;DHT22;32452;51.382;-0.002;2023-07-20T01:04:19;17.90;79.50
46720;DHT22;32452;51.382;-0.002;2023-07-20T01:07:27;17.80;79.70
46720;DHT22;32452;51.382;-0.002;2023-07-20T01:10:54;17.80;80.10
46720;DHT22;32452;51.382;-0.002;2023-07-20T01:13:41;17.70;80.40
46720;DHT22;32452;51.382;-0.002;2023-07-20T01:16:28;17.60;80.70
46720;DHT22;32452;51.382;-0.002;2023-07-20T01:19:14;17.50;81.10
46720;DHT22;32452;51.382;-0.002;2023-07-20T01:22:10;17.50;81.60
46720;DHT22;32452;51.382;-0.002;2023-07-20T01:31:27;17.30;83.10
46720;DHT22;32452;51.382;-0.002;2023-07-20T01:34:14;17.20;83.50
46720;DHT22;32452;51.382;-0.002;2023-07-20T01:37:04;17.20;84.00
46720;DHT22;32452;51.382;-0.002;2023-07-20T01:39:56;17.20;84.50
46720;DHT22;32452;51.382;-0.002;2023-07-20T01:42:46;17.10;84.90
46720;DHT22;32452;51.382;-0.002;2023-07-20T01:45:32;17.10;85.50
46720;DHT22;32452;51.382;-0.002;2023-07-20T01:48:19;17.00;85.90
46720;DHT22;32452;51.382;-0.002;2023-07-20T01:51:07;17.00;86.50
46720;DHT22;32452;51.382;-0.002;2023-07-20T01:53:54;17.00;87.10
46720;DHT22;32452;51.382;-0.002;2023-07-20T01:56:40;16.90;87.50
46720;DHT22;32452;51.382;-0.002;2023-07-20T01:59:25;16.90;88.00
46720;DHT22;32452;51.382;-0.002;2023-07-20T02:02:11;16.90;88.50
46720;DHT22;32452;51.382;-0.002;2023-07-20T02:04:56;16.80;88.90
46720;DHT22;32452;51.382;-0.002;2023-07-20T02:07:42;16.80;89.40
46720;DHT22;32452;51.382;-0.002;2023-07-20T02:10:28;16.80;90.00
46720;DHT22;32452;51.382;-0.002;2023-07-20T02:13:14;16.70;90.10
46720;DHT22;32452;51.382;-0.002;2023-07-20T02:16:00;16.70;90.20
46720;DHT22;32452;51.382;-0.002;2023-07-20T02:18:45;16.70;90.40
46720;DHT22;32452;51.382;-0.002;2023-07-20T02:21:31;16.70;90.60
46720;DHT22;32452;51.382;-0.002;2023-07-20T02:24:16;16.60;90.80
46720;DHT22;32452;51.382;-0.002;2023-07-20T02:27:02;16.60;90.90
46720;DHT22;32452;51.382;-0.002;2023-07-20T02:29:48;16.60;91.10
46720;DHT22;32452;51.382;-0.002;2023-07-20T02:32:33;16.60;91.30
46720;DHT22;32452;51.382;-0.002;2023-07-20T02:35:19;16.50;91.40
46720;DHT22;32452;51.382;-0.002;2023-07-20T02:38:05;16.50;91.70
46720;DHT22;32452;51.382;-0.002;2023-07-20T02:40:52;16.50;91.90
46720;DHT22;32452;51.382;-0.002;2023-07-20T02:43:37;16.50;92.00
46720;DHT22;32452;51.382;-0.002;2023-07-20T02:46:23;16.50;92.10
46720;DHT22;32452;51.382;-0.002;2023-07-20T02:49:09;16.50;92.30
46720;DHT22;32452;51.382;-0.002;2023-07-20T02:51:55;16.60;92.40
46720;DHT22;32452;51.382;-0.002;2023-07-20T02:54:40;16.60;92.50
46720;DHT22;32452;51.382;-0.002;2023-07-20T02:57:26;16.60;92.60
46720;DHT22;32452;51.382;-0.002;2023-07-20T03:00:12;16.60;92.70
46720;DHT22;32452;51.382;-0.002;2023-07-20T03:03:00;16.60;92.70
46720;DHT22;32452;51.382;-0.002;2023-07-20T03:05:47;16.60;92.80
46720;DHT22;32452;51.382;-0.002;2023-07-20T03:08:39;16.60;92.90
46720;DHT22;32452;51.382;-0.002;2023-07-20T03:11:26;16.60;93.00
46720;DHT22;32452;51.382;-0.002;2023-07-20T03:14:11;16.50;93.10
46720;DHT22;32452;51.382;-0.002;2023-07-20T03:16:57;16.50;93.20
46720;DHT22;32452;51.382;-0.002;2023-07-20T03:19:43;16.50;93.20
46720;DHT22;32452;51.382;-0.002;2023-07-20T03:22:28;16.50;93.30
46720;DHT22;32452;51.382;-0.002;2023-07-20T03:25:14;16.50;93.30
46720;DHT22;32452;51.382;-0.002;2023-07-20T03:27:59;16.40;93.30
46720;DHT22;32452;51.382;-0.002;2023-07-20T03:30:45;16.40;93.40
46720;DHT22;32452;51.382;-0.002;2023-07-20T03:33:31;16.30;93.50
46720;DHT22;32452;51.382;-0.002;2023-07-20T03:36:16;16.30;93.50
46720;DHT22;32452;51.382;-0.002;2023-07-20T03:39:02;16.20;93.50
46720;DHT22;32452;51.382;-0.002;2023-07-20T03:41:48;16.20;93.60
46720;DHT22;32452;51.382;-0.002;2023-07-20T03:44:34;16.10;93.70
46720;DHT22;32452;51.382;-0.002;2023-07-20T03:47:19;16.10;93.90
46720;DHT22;32452;51.382;-0.002;2023-07-20T03:50:05;16.10;94.00
46720;DHT22;32452;51.382;-0.002;2023-07-20T03:52:50;16.00;94.20
46720;DHT22;32452;51.382;-0.002;2023-07-20T03:55:36;16.00;94.30
46720;DHT22;32452;51.382;-0.002;2023-07-20T03:58:21;16.00;94.40
46720;DHT22;32452;51.382;-0.002;2023-07-20T04:01:07;16.10;94.40
46720;DHT22;32452;51.382;-0.002;2023-07-20T04:03:53;16.00;94.40
46720;DHT22;32452;51.382;-0.002;2023-07-20T04:06:39;16.00;94.50
46720;DHT22;32452;51.382;-0.002;2023-07-20T04:09:24;16.00;94.60
46720;DHT22;32452;51.382;-0.002;2023-07-20T04:12:10;15.90;94.70
46720;DHT22;32452;51.382;-0.002;2023-07-20T04:14:55;15.90;94.80
46720;DHT22;32452;51.382;-0.002;2023-07-20T04:17:40;15.90;94.80
46720;DHT22;32452;51.382;-0.002;2023-07-20T04:20:26;15.80;94.90
46720;DHT22;32452;51.382;-0.002;2023-07-20T04:23:11;15.80;95.10
46720;DHT22;32452;51.382;-0.002;2023-07-20T04:25:57;15.70;95.20
46720;DHT22;32452;51.382;-0.002;2023-07-20T04:28:43;15.70;95.30
46720;DHT22;32452;51.382;-0.002;2023-07-20T04:31:28;15.70;95.30
46720;DHT22;32452;51.382;-0.002;2023-07-20T04:34:14;15.60;95.40
46720;DHT22;32452;51.382;-0.002;2023-07-20T04:37:00;15.60;95.50
46720;DHT22;32452;51.382;-0.002;2023-07-20T04:39:46;15.60;95.50
46720;DHT22;32452;51.382;-0.002;2023-07-20T04:42:35;15.60;95.60
46720;DHT22;32452;51.382;-0.002;2023-07-20T04:45:21;15.50;95.60
46720;DHT22;32452;51.382;-0.002;2023-07-20T04:48:13;15.60;95.80
46720;DHT22;32452;51.382;-0.002;2023-07-20T04:50:59;15.60;95.80
46720;DHT22;32452;51.382;-0.002;2023-07-20T04:53:45;15.60;96.20
46720;DHT22;32452;51.382;-0.002;2023-07-20T04:56:30;15.60;95.90
46720;DHT22;32452;51.382;-0.002;2023-07-20T04:59:16;15.60;95.90
46720;DHT22;32452;51.382;-0.002;2023-07-20T05:02:01;15.60;96.00
46720;DHT22;32452;51.382;-0.002;2023-07-20T05:04:47;15.60;96.10
46720;DHT22;32452;51.382;-0.002;2023-07-20T05:07:32;15.70;96.40
46720;DHT22;32452;51.382;-0.002;2023-07-20T05:10:18;15.70;96.10
46720;DHT22;32452;51.382;-0.002;2023-07-20T05:13:03;15.70;96.10
46720;DHT22;32452;51.382;-0.002;2023-07-20T05:15:51;15.70;96.10
46720;DHT22;32452;51.382;-0.002;2023-07-20T05:18:37;15.80;96.10
46720;DHT22;32452;51.382;-0.002;2023-07-20T05:21:23;15.90;96.10
46720;DHT22;32452;51.382;-0.002;2023-07-20T05:24:08;15.90;96.20
46720;DHT22;32452;51.382;-0.002;2023-07-20T05:26:54;16.00;96.30
46720;DHT22;32452;51.382;-0.002;2023-07-20T05:29:44;16.00;96.30
46720;DHT22;32452;51.382;-0.002;2023-07-20T05:32:30;16.10;96.30
46720;DHT22;32452;51.382;-0.002;2023-07-20T05:35:16;16.20;96.20
46720;DHT22;32452;51.382;-0.002;2023-07-20T05:38:02;16.30;96.20
46720;DHT22;32452;51.382;-0.002;2023-07-20T05:40:49;16.50;96.30
46720;DHT22;32452;51.382;-0.002;2023-07-20T05:43:35;16.70;96.20
46720;DHT22;32452;51.382;-0.002;2023-07-20T05:46:20;17.00;96.20
46720;DHT22;32452;51.382;-0.002;2023-07-20T05:49:06;17.30;95.90
46720;DHT22;32452;51.382;-0.002;2023-07-20T05:51:52;17.80;95.30
46720;DHT22;32452;51.382;-0.002;2023-07-20T05:54:37;18.40;94.50
46720;DHT22;32452;51.382;-0.002;2023-07-20T05:57:23;19.30;93.30
46720;DHT22;32452;51.382;-0.002;2023-07-20T06:00:09;20.10;91.70
46720;DHT22;32452;51.382;-0.002;2023-07-20T06:02:59;20.90;90.20
46720;DHT22;32452;51.382;-0.002;2023-07-20T06:05:45;21.50;87.10
46720;DHT22;32452;51.382;-0.002;2023-07-20T06:08:31;22.10;84.20
46720;DHT22;32452;51.382;-0.002;2023-07-20T06:11:17;22.50;81.40
46720;DHT22;32452;51.382;-0.002;2023-07-20T06:14:03;22.90;79.20
46720;DHT22;32452;51.382;-0.002;2023-07-20T06:16:49;23.30;76.70
46720;DHT22;32452;51.382;-0.002;2023-07-20T06:19:35;23.60;74.40
46720;DHT22;32452;51.382;-0.002;2023-07-20T06:22:20;23.80;72.30
46720;DHT22;32452;51.382;-0.002;2023-07-20T06:25:06;24.00;70.80
46720;DHT22;32452;51.382;-0.002;2023-07-20T06:27:52;24.30;69.00
46720;DHT22;32452;51.382;-0.002;2023-07-20T06:30:37;24.50;67.30
46720;DHT22;32452;51.382;-0.002;2023-07-20T06:33:23;24.80;65.40
46720;DHT22;32452;51.382;-0.002;2023-07-20T06:36:09;25.10;63.90
46720;DHT22;32452;51.382;-0.002;2023-07-20T06:38:58;25.50;62.60
46720;DHT22;32452;51.382;-0.002;2023-07-20T06:41:46;25.80;61.00
46720;DHT22;32452;51.382;-0.002;2023-07-20T06:44:32;25.90;60.20
46720;DHT22;32452;51.382;-0.002;2023-07-20T06:47:17;25.90;59.40
46720;DHT22;32452;51.382;-0.002;2023-07-20T06:50:03;25.90;58.90
46720;DHT22;32452;51.382;-0.002;2023-07-20T06:52:48;25.40;58.80
46720;DHT22;32452;51.382;-0.002;2023-07-20T06:55:34;24.70;59.30
46720;DHT22;32452;51.382;-0.002;2023-07-20T06:58:26;24.00;60.40
46720;DHT22;32452;51.382;-0.002;2023-07-20T07:01:12;23.30;61.60
46720;DHT22;32452;51.382;-0.002;2023-07-20T07:03:57;22.70;63.00
46720;DHT22;32452;51.382;-0.002;2023-07-20T07:06:43;22.20;64.10
46720;DHT22;32452;51.382;-0.002;2023-07-20T07:09:29;21.90;65.20
46720;DHT22;32452;51.382;-0.002;2023-07-20T07:12:15;22.10;65.10
46720;DHT22;32452;51.382;-0.002;2023-07-20T07:15:07;22.40;64.80
46720;DHT22;32452;51.382;-0.002;2023-07-20T07:18:03;23.30;62.90
46720;DHT22;32452;51.382;-0.002;2023-07-20T07:20:52;23.80;61.10
46720;DHT22;32452;51.382;-0.002;2023-07-20T07:23:39;24.30;59.70
46720;DHT22;32452;51.382;-0.002;2023-07-20T07:26:31;25.10;58.50
46720;DHT22;32452;51.382;-0.002;2023-07-20T07:29:17;25.90;57.30
46720;DHT22;32452;51.382;-0.002;2023-07-20T07:32:04;26.50;55.70
46720;DHT22;32452;51.382;-0.002;2023-07-20T07:34:51;27.00;54.20
46720;DHT22;32452;51.382;-0.002;2023-07-20T07:37:36;27.40;53.30
46720;DHT22;32452;51.382;-0.002;2023-07-20T07:40:42;27.60;52.70
46720;DHT22;32452;51.382;-0.002;2023-07-20T07:43:28;27.80;51.70
46720;DHT22;32452;51.382;-0.002;2023-07-20T07:46:14;28.10;51.10
46720;DHT22;32452;51.382;-0.002;2023-07-20T07:49:00;28.40;50.50
46720;DHT22;32452;51.382;-0.002;2023-07-20T07:51:45;28.80;49.50
46720;DHT22;32452;51.382;-0.002;2023-07-20T07:54:31;29.10;48.20
46720;DHT22;32452;51.382;-0.002;2023-07-20T07:57:17;29.20;47.70
46720;DHT22;32452;51.382;-0.002;2023-07-20T08:00:02;29.50;47.00
46720;DHT22;32452;51.382;-0.002;2023-07-20T08:02:50;29.70;46.40
46720;DHT22;32452;51.382;-0.002;2023-07-20T08:05:36;30.00;45.80
46720;DHT22;32452;51.382;-0.002;2023-07-20T08:08:22;30.20;45.20
46720;DHT22;32452;51.382;-0.002;2023-07-20T08:11:09;30.30;44.40
46720;DHT22;32452;51.382;-0.002;2023-07-20T08:13:55;30.20;44.10
46720;DHT22;32452;51.382;-0.002;2023-07-20T08:16:40;30.10;43.80
46720;DHT22;32452;51.382;-0.002;2023-07-20T08:19:26;29.70;43.40
46720;DHT22;32452;51.382;-0.002;2023-07-20T08:22:11;29.50;43.50
46720;DHT22;32452;51.382;-0.002;2023-07-20T08:24:57;29.50;42.90
46720;DHT22;32452;51.382;-0.002;2023-07-20T08:27:43;29.20;43.10
46720;DHT22;32452;51.382;-0.002;2023-07-20T08:30:42;29.40;43.20
46720;DHT22;32452;51.382;-0.002;2023-07-20T08:33:28;29.80;42.80
46720;DHT22;32452;51.382;-0.002;2023-07-20T08:36:18;30.00;42.10
46720;DHT22;32452;51.382;-0.002;2023-07-20T08:39:06;30.20;41.30
46720;DHT22;32452;51.382;-0.002;2023-07-20T08:41:55;30.50;41.50
46720;DHT22;32452;51.382;-0.002;2023-07-20T08:44:42;30.70;40.40
46720;DHT22;32452;51.382;-0.002;2023-07-20T08:47:29;30.20;40.70
46720;DHT22;32452;51.382;-0.002;2023-07-20T08:50:15;29.50;40.70
46720;DHT22;32452;51.382;-0.002;2023-07-20T08:53:02;29.00;41.40
46720;DHT22;32452;51.382;-0.002;2023-07-20T08:55:50;28.60;42.10
46720;DHT22;32452;51.382;-0.002;2023-07-20T08:58:37;28.10;43.00
46720;DHT22;32452;51.382;-0.002;2023-07-20T09:01:24;27.60;43.00
46720;DHT22;32452;51.382;-0.002;2023-07-20T09:04:11;27.10;43.30
46720;DHT22;32452;51.382;-0.002;2023-07-20T09:06:58;26.80;43.80
46720;DHT22;32452;51.382;-0.002;2023-07-20T09:09:43;26.60;44.40
46720;DHT22;32452;51.382;-0.002;2023-07-20T09:12:29;26.60;44.40
46720;DHT22;32452;51.382;-0.002;2023-07-20T09:15:15;26.60;44.30
46720;DHT22;32452;51.382;-0.002;2023-07-20T09:18:02;26.80;44.00
46720;DHT22;32452;51.382;-0.002;2023-07-20T09:20:48;27.10;43.60
46720;DHT22;32452;51.382;-0.002;2023-07-20T09:23:36;27.40;43.00
46720;DHT22;32452;51.382;-0.002;2023-07-20T09:26:23;28.00;42.60
46720;DHT22;32452;51.382;-0.002;2023-07-20T09:29:12;28.70;41.80
46720;DHT22;32452;51.382;-0.002;2023-07-20T09:32:04;29.40;41.10
46720;DHT22;32452;51.382;-0.002;2023-07-20T09:34:51;29.80;40.00
46720;DHT22;32452;51.382;-0.002;2023-07-20T09:37:38;30.20;39.10
46720;DHT22;32452;51.382;-0.002;2023-07-20T09:40:24;30.30;38.80
46720;DHT22;32452;51.382;-0.002;2023-07-20T09:43:32;30.20;39.00
46720;DHT22;32452;51.382;-0.002;2023-07-20T09:46:19;30.00;38.80
46720;DHT22;32452;51.382;-0.002;2023-07-20T09:49:09;29.70;38.50
46720;DHT22;32452;51.382;-0.002;2023-07-20T09:51:58;29.20;38.70
46720;DHT22;32452;51.382;-0.002;2023-07-20T09:54:46;28.80;39.90
46720;DHT22;32452;51.382;-0.002;2023-07-20T09:57:33;28.30;40.10
46720;DHT22;32452;51.382;-0.002;2023-07-20T10:00:21;27.70;40.50
46720;DHT22;32452;51.382;-0.002;2023-07-20T10:03:37;27.20;41.10
46720;DHT22;32452;51.382;-0.002;2023-07-20T10:06:28;27.30;41.30
46720;DHT22;32452;51.382;-0.002;2023-07-20T10:09:26;28.00;40.70
46720;DHT22;32452;51.382;-0.002;2023-07-20T10:12:23;28.50;39.90
46720;DHT22;32452;51.382;-0.002;2023-07-20T10:16:11;28.30;39.50
46720;DHT22;32452;51.382;-0.002;2023-07-20T10:19:56;28.00;40.00
46720;DHT22;32452;51.382;-0.002;2023-07-20T10:22:30;28.40;39.70
46720;DHT22;32452;51.382;-0.002;2023-07-20T10:25:26;29.10;39.00
46720;DHT22;32452;51.382;-0.002;2023-07-20T10:28:16;29.70;37.90
46720;DHT22;32452;51.382;-0.002;2023-07-20T10:31:15;30.30;37.30
46720;DHT22;32452;51.382;-0.002;2023-07-20T10:34:07;30.90;36.50
46720;DHT22;32452;51.382;-0.002;2023-07-20T10:36:56;31.20;35.90
46720;DHT22;32452;51.382;-0.002;2023-07-20T10:39:41;31.30;34.90
46720;DHT22;32452;51.382;-0.002;2023-07-20T10:42:33;30.90;34.90
46720;DHT22;32452;51.382;-0.002;2023-07-20T10:45:19;30.10;35.20
46720;DHT22;32452;51.382;-0.002;2023-07-20T10:48:06;29.30;35.80
46720;DHT22;32452;51.382;-0.002;2023-07-20T10:51:13;28.40;36.30
46720;DHT22;32452;51.382;-0.002;2023-07-20T10:54:02;27.70;37.20
46720;DHT22;32452;51.382;-0.002;2023-07-20T10:56:48;27.60;37.70
46720;DHT22;32452;51.382;-0.002;2023-07-20T11:02:24;28.50;37.50
46720;DHT22;32452;51.382;-0.002;2023-07-20T11:05:46;29.00;36.80
46720;DHT22;32452;51.382;-0.002;2023-07-20T11:08:44;29.50;36.40
46720;DHT22;32452;51.382;-0.002;2023-07-20T11:11:34;29.80;35.70
46720;DHT22;32452;51.382;-0.002;2023-07-20T11:14:26;30.10;35.10
46720;DHT22;32452;51.382;-0.002;2023-07-20T11:17:14;30.10;34.80
46720;DHT22;32452;51.382;-0.002;2023-07-20T11:20:03;30.00;34.30
46720;DHT22;32452;51.382;-0.002;2023-07-20T11:22:53;30.20;34.40
46720;DHT22;32452;51.382;-0.002;2023-07-20T11:25:40;30.40;34.70
46720;DHT22;32452;51.382;-0.002;2023-07-20T11:28:30;30.60;34.90
46720;DHT22;32452;51.382;-0.002;2023-07-20T11:31:18;30.70;33.90
46720;DHT22;32452;51.382;-0.002;2023-07-20T11:34:09;30.80;33.60
46720;DHT22;32452;51.382;-0.002;2023-07-20T11:36:57;30.90;33.50
46720;DHT22;32452;51.382;-0.002;2023-07-20T11:39:47;30.90;33.30
46720;DHT22;32452;51.382;-0.002;2023-07-20T11:42:34;30.90;32.60
46720;DHT22;32452;51.382;-0.002;2023-07-20T11:45:23;30.60;32.40
46720;DHT22;32452;51.382;-0.002;2023-07-20T11:48:15;30.00;32.80
46720;DHT22;32452;51.382;-0.002;2023-07-20T11:51:01;29.40;33.50
46720;DHT22;32452;51.382;-0.002;2023-07-20T11:53:47;29.00;34.20
46720;DHT22;32452;51.382;-0.002;2023-07-20T11:56:33;28.90;34.40
46720;DHT22;32452;51.382;-0.002;2023-07-20T11:59:19;29.00;34.60
46720;DHT22;32452;51.382;-0.002;2023-07-20T12:02:05;29.20;34.90
46720;DHT22;32452;51.382;-0.002;2023-07-20T12:04:52;29.40;35.20
46720;DHT22;32452;51.382;-0.002;2023-07-20T12:07:39;29.70;34.70
46720;DHT22;32452;51.382;-0.002;2023-07-20T12:10:27;29.90;34.20
46720;DHT22;32452;51.382;-0.002;2023-07-20T12:13:14;29.90;33.50
46720;DHT22;32452;51.382;-0.002;2023-07-20T12:16:08;29.60;33.60
46720;DHT22;32452;51.382;-0.002;2023-07-20T12:19:02;29.10;33.70
46720;DHT22;32452;51.382;-0.002;2023-07-20T12:21:48;28.60;34.00
46720;DHT22;32452;51.382;-0.002;2023-07-20T12:24:33;28.20;34.50
46720;DHT22;32452;51.382;-0.002;2023-07-20T12:27:20;28.10;34.80
46720;DHT22;32452;51.382;-0.002;2023-07-20T12:30:07;28.30;35.00
46720;DHT22;32452;51.382;-0.002;2023-07-20T12:32:53;28.40;34.70
46720;DHT22;32452;51.382;-0.002;2023-07-20T12:35:38;28.40;34.00
46720;DHT22;32452;51.382;-0.002;2023-07-20T12:38:25;28.40;34.10
46720;DHT22;32452;51.382;-0.002;2023-07-20T12:41:14;28.40;34.10
46720;DHT22;32452;51.382;-0.002;2023-07-20T12:43:59;28.40;34.40
46720;DHT22;32452;51.382;-0.002;2023-07-20T12:46:45;28.40;34.80
46720;DHT22;32452;51.382;-0.002;2023-07-20T12:49:31;28.30;34.90
46720;DHT22;32452;51.382;-0.002;2023-07-20T12:52:17;28.10;34.80
46720;DHT22;32452;51.382;-0.002;2023-07-20T12:55:03;28.00;35.00
46720;DHT22;32452;51.382;-0.002;2023-07-20T12:58:01;27.70;35.00
46720;DHT22;32452;51.382;-0.002;2023-07-20T13:00:47;27.50;35.10
46720;DHT22;32452;51.382;-0.002;2023-07-20T13:03:33;27.30;35.20
46720;DHT22;32452;51.382;-0.002;2023-07-20T13:06:19;27.10;35.10
46720;DHT22;32452;51.382;-0.002;2023-07-20T13:09:08;26.90;35.10
46720;DHT22;32452;51.382;-0.002;2023-07-20T13:11:53;26.90;35.30
46720;DHT22;32452;51.382;-0.002;2023-07-20T13:14:39;26.90;35.70
46720;DHT22;32452;51.382;-0.002;2023-07-20T13:17:25;27.00;35.20
46720;DHT22;32452;51.382;-0.002;2023-07-20T13:20:11;27.10;35.20
46720;DHT22;32452;51.382;-0.002;2023-07-20T13:22:56;27.20;35.30
46720;DHT22;32452;51.382;-0.002;2023-07-20T13:25:42;27.10;35.00
46720;DHT22;32452;51.382;-0.002;2023-07-20T13:28:27;27.10;35.30
46720;DHT22;32452;51.382;-0.002;2023-07-20T13:31:14;27.10;35.50
46720;DHT22;32452;51.382;-0.002;2023-07-20T13:34:02;27.00;35.80
46720;DHT22;32452;51.382;-0.002;2023-07-20T13:36:48;27.20;35.20
46720;DHT22;32452;51.382;-0.002;2023-07-20T13:39:34;27.20;35.10
46720;DHT22;32452;51.382;-0.002;2023-07-20T13:42:20;27.10;35.20
46720;DHT22;32452;51.382;-0.002;2023-07-20T13:45:07;27.00;35.00
46720;DHT22;32452;51.382;-0.002;2023-07-20T13:47:53;27.10;35.00
46720;DHT22;32452;51.382;-0.002;2023-07-20T13:50:39;27.20;35.20
46720;DHT22;32452;51.382;-0.002;2023-07-20T13:53:47;27.40;35.20
46720;DHT22;32452;51.382;-0.002;2023-07-20T13:56:35;27.30;34.70
46720;DHT22;32452;51.382;-0.002;2023-07-20T13:59:22;27.30;34.40
46720;DHT22;32452;51.382;-0.002;2023-07-20T14:02:08;27.20;34.30
46720;DHT22;32452;51.382;-0.002;2023-07-20T14:04:57;27.10;34.60
46720;DHT22;32452;51.382;-0.002;2023-07-20T14:07:46;27.10;34.60
46720;DHT22;32452;51.382;-0.002;2023-07-20T14:10:32;27.30;34.30
46720;DHT22;32452;51.382;-0.002;2023-07-20T14:13:18;27.40;33.90
46720;DHT22;32452;51.382;-0.002;2023-07-20T14:16:04;27.60;33.70
46720;DHT22;32452;51.382;-0.002;2023-07-20T14:18:52;27.70;33.30
46720;DHT22;32452;51.382;-0.002;2023-07-20T14:21:38;27.60;32.70
46720;DHT22;32452;51.382;-0.002;2023-07-20T14:24:24;27.40;32.80
46720;DHT22;32452;51.382;-0.002;2023-07-20T14:27:10;27.30;33.00
46720;DHT22;32452;51.382;-0.002;2023-07-20T14:29:56;27.10;33.30
46720;DHT22;32452;51.382;-0.002;2023-07-20T14:32:41;27.00;33.60
46720;DHT22;32452;51.382;-0.002;2023-07-20T14:35:27;26.90;33.70
46720;DHT22;32452;51.382;-0.002;2023-07-20T14:38:12;26.70;33.70
46720;DHT22;32452;51.382;-0.002;2023-07-20T14:40:58;26.60;33.90
46720;DHT22;32452;51.382;-0.002;2023-07-20T14:43:44;26.60;34.00
46720;DHT22;32452;51.382;-0.002;2023-07-20T14:46:30;26.60;34.30
46720;DHT22;32452;51.382;-0.002;2023-07-20T14:49:17;26.70;34.30
46720;DHT22;32452;51.382;-0.002;2023-07-20T14:52:04;26.70;34.70
46720;DHT22;32452;51.382;-0.002;2023-07-20T14:55:00;26.70;34.60
46720;DHT22;32452;51.382;-0.002;2023-07-20T14:57:46;26.60;34.60
46720;DHT22;32452;51.382;-0.002;2023-07-20T15:00:33;26.50;34.50
46720;DHT22;32452;51.382;-0.002;2023-07-20T15:03:19;26.50;34.30
46720;DHT22;32452;51.382;-0.002;2023-07-20T15:06:04;26.40;34.20
46720;DHT22;32452;51.382;-0.002;2023-07-20T15:08:56;26.30;34.20
46720;DHT22;32452;51.382;-0.002;2023-07-20T15:11:41;26.20;34.70
46720;DHT22;32452;51.382;-0.002;2023-07-20T15:14:29;26.20;36.10
46720;DHT22;32452;51.382;-0.002;2023-07-20T15:17:14;26.10;35.60
46720;DHT22;32452;51.382;-0.002;2023-07-20T15:20:01;26.10;35.60
46720;DHT22;32452;51.382;-0.002;2023-07-20T15:22:49;26.10;35.40
46720;DHT22;32452;51.382;-0.002;2023-07-20T15:25:35;26.10;35.30
46720;DHT22;32452;51.382;-0.002;2023-07-20T15:28:22;26.10;35.20
46720;DHT22;32452;51.382;-0.002;2023-07-20T15:31:07;26.00;35.30
46720;DHT22;32452;51.382;-0.002;2023-07-20T15:33:53;26.00;35.30
46720;DHT22;32452;51.382;-0.002;2023-07-20T15:36:39;26.00;35.30
46720;DHT22;32452;51.382;-0.002;2023-07-20T15:39:24;26.00;35.70
46720;DHT22;32452;51.382;-0.002;2023-07-20T15:42:12;25.90;35.80
46720;DHT22;32452;51.382;-0.002;2023-07-20T15:44:57;25.90;36.00
46720;DHT22;32452;51.382;-0.002;2023-07-20T15:47:43;25.90;35.90
46720;DHT22;32452;51.382;-0.002;2023-07-20T15:50:29;25.90;35.40
46720;DHT22;32452;51.382;-0.002;2023-07-20T15:53:15;25.80;34.90
46720;DHT22;32452;51.382;-0.002;2023-07-20T15:56:00;25.80;34.20
46720;DHT22;32452;51.382;-0.002;2023-07-20T15:58:47;25.80;34.10
46720;DHT22;32452;51.382;-0.002;2023-07-20T16:01:32;25.90;33.50
46720;DHT22;32452;51.382;-0.002;2023-07-20T16:04:18;25.90;33.00
46720;DHT22;32452;51.382;-0.002;2023-07-20T16:07:05;25.90;33.00
46720;DHT22;32452;51.382;-0.002;2023-07-20T16:09:52;25.90;33.20
46720;DHT22;32452;51.382;-0.002;2023-07-20T16:12:38;25.80;33.60
46720;DHT22;32452;51.382;-0.002;2023-07-20T16:15:26;25.80;33.80
46720;DHT22;32452;51.382;-0.002;2023-07-20T16:18:15;25.80;34.00
46720;DHT22;32452;51.382;-0.002;2023-07-20T16:21:01;25.80;34.40
46720;DHT22;32452;51.382;-0.002;2023-07-20T16:23:46;25.80;34.10
46720;DHT22;32452;51.382;-0.002;2023-07-20T16:26:32;25.80;34.20
46720;DHT22;32452;51.382;-0.002;2023-07-20T16:29:18;25.80;34.20
46720;DHT22;32452;51.382;-0.002;2023-07-20T16:32:08;25.80;34.20
46720;DHT22;32452;51.382;-0.002;2023-07-20T16:34:55;25.70;34.30
46720;DHT22;32452;51.382;-0.002;2023-07-20T16:37:42;25.70;34.40
46720;DHT22;32452;51.382;-0.002;2023-07-20T16:40:28;25.60;34.50
46720;DHT22;32452;51.382;-0.002;2023-07-20T16:43:37;25.60;34.30
46720;DHT22;32452;51.382;-0.002;2023-07-20T16:46:26;25.50;34.40
46720;DHT22;32452;51.382;-0.002;2023-07-20T16:49:15;25.50;34.70
46720;DHT22;32452;51.382;-0.002;2023-07-20T16:52:02;25.50;34.90
46720;DHT22;32452;51.382;-0.002;2023-07-20T16:54:48;25.40;34.70
46720;DHT22;32452;51.382;-0.002;2023-07-20T16:57:34;25.40;34.50
46720;DHT22;32452;51.382;-0.002;2023-07-20T17:00:20;25.30;34.20
46720;DHT22;32452;51.382;-0.002;2023-07-20T17:03:07;25.30;34.40
46720;DHT22;32452;51.382;-0.002;2023-07-20T17:05:53;25.30;35.00
46720;DHT22;32452;51.382;-0.002;2023-07-20T17:08:40;25.30;35.20
46720;DHT22;32452;51.382;-0.002;2023-07-20T17:11:26;25.20;35.20
46720;DHT22;32452;51.382;-0.002;2023-07-20T17:14:12;25.10;35.30
46720;DHT22;32452;51.382;-0.002;2023-07-20T17:16:59;25.10;35.50
46720;DHT22;32452;51.382;-0.002;2023-07-20T17:19:44;25.00;35.70
46720;DHT22;32452;51.382;-0.002;2023-07-20T17:22:30;24.90;35.80
46720;DHT22;32452;51.382;-0.002;2023-07-20T17:25:16;24.80;36.10
46720;DHT22;32452;51.382;-0.002;2023-07-20T17:28:07;24.80;36.40
46720;DHT22;32452;51.382;-0.002;2023-07-20T17:30:57;24.70;36.80